Time;durP1;ratioP1;P1;durP2;ratioP2;P2;SDS_P1;SDS_P2;PMS_P1;PMS_P2;Temp;Humidity;BMP_temperature;BMP_pressure;BME280_temperature;BME280_humidity;BME280_pressure;Samples;Min_cycle;Max_cycle;Signal;HPM_P1;HPM_P2
2022/04/06 00:01:14;;;;;;;22.48;4.60;;;;;;;;;;5105498;27;20026;-77
2022/04/06 00:03:40;;;;;;;19.83;5.15;;;;;;;;;;5126637;27;20041;-76
2022/04/06 00:06:06;;;;;;;18.73;5.05;;;;;;;;;;5145006;27;20022;-75
2022/04/06 00:08:31;;;;;;;22.70;5.30;;;;;;;;;;5124639;27;20029;-75
2022/04/06 00:10:57;;;;;;;22.15;5.85;;;;;;;;;;5144605;27;20015;-76
2022/04/06 00:13:22;;;;;;;26.00;5.43;;;;;;;;;;5144699;27;20070;-76
2022/04/06 00:15:47;;;;;;;22.20;5.32;;;;;;;;;;5110931;27;20027;-78
2022/04/06 00:18:13;;;;;;;22.70;5.07;;;;;;;;;;5141582;27;20015;-75
2022/04/06 00:20:38;;;;;;;24.98;5.63;;;;;;;;;;5114503;27;20011;-77
2022/04/06 00:23:08;;;;;;;21.70;5.15;;;;;;;;;;5126347;27;20481;-76
2022/04/06 00:25:34;;;;;;;24.10;5.80;;;;;;;;;;5105313;27;20026;-75
2022/04/06 00:27:59;;;;;;;24.05;6.18;;;;;;;;;;5107097;27;20019;-75
2022/04/06 00:30:25;;;;;;;23.80;5.65;;;;;;;;;;5109922;27;20022;-75
2022/04/06 00:32:50;;;;;;;21.08;5.50;;;;;;;;;;5107860;27;20572;-75
2022/04/06 00:35:32;;;;;;;21.10;5.25;;;;;;;;;;5125727;27;20022;-76
2022/04/06 00:37:58;;;;;;;18.95;5.93;;;;;;;;;;5142977;27;20075;-75
2022/04/06 00:40:25;;;;;;;17.08;5.53;;;;;;;;;;5126106;27;20025;-74
2022/04/06 00:42:50;;;;;;;20.65;5.70;;;;;;;;;;5125753;27;20071;-75
2022/04/06 00:45:16;;;;;;;18.80;5.00;;;;;;;;;;5140502;27;20138;-76
2022/04/06 00:47:41;;;;;;;16.92;4.90;;;;;;;;;;5101465;27;20439;-75
2022/04/06 00:50:07;;;;;;;21.05;5.88;;;;;;;;;;5086104;27;20023;-74
2022/04/06 00:52:32;;;;;;;20.45;5.90;;;;;;;;;;5101158;27;20026;-74
2022/04/06 00:54:58;;;;;;;20.13;5.47;;;;;;;;;;5124725;27;20027;-76
2022/04/06 00:57:24;;;;;;;20.92;5.07;;;;;;;;;;5123008;27;20122;-77
2022/04/06 00:59:50;;;;;;;16.65;4.55;;;;;;;;;;5088279;27;20181;-77
2022/04/06 01:02:16;;;;;;;13.18;4.25;;;;;;;;;;5107101;27;20107;-76
2022/04/06 01:04:41;;;;;;;14.88;4.05;;;;;;;;;;5142974;27;20018;-75
2022/04/06 01:07:06;;;;;;;18.15;3.97;;;;;;;;;;5125033;27;20648;-76
2022/04/06 01:09:31;;;;;;;17.92;4.97;;;;;;;;;;5142810;27;20787;-76
2022/04/06 01:11:57;;;;;;;16.85;3.88;;;;;;;;;;5143753;27;20341;-77
2022/04/06 01:14:23;;;;;;;15.70;4.15;;;;;;;;;;5143724;27;20130;-75
2022/04/06 01:17:01;;;;;;;17.67;4.85;;;;;;;;;;5143063;27;20035;-73
2022/04/06 01:19:31;;;;;;;12.10;3.70;;;;;;;;;;5124170;27;20075;-76
2022/04/06 01:21:56;;;;;;;12.85;4.10;;;;;;;;;;5144310;27;20022;-74
2022/04/06 01:24:21;;;;;;;12.32;3.97;;;;;;;;;;5148374;27;20011;-75
2022/04/06 01:26:47;;;;;;;13.82;3.80;;;;;;;;;;5147922;27;20046;-75
2022/04/06 01:29:12;;;;;;;14.35;3.90;;;;;;;;;;5112352;27;20364;-76
2022/04/06 01:31:37;;;;;;;15.68;3.88;;;;;;;;;;5147740;27;20105;-76
2022/04/06 01:34:03;;;;;;;17.70;3.95;;;;;;;;;;5141661;27;20109;-76
2022/04/06 01:36:29;;;;;;;10.48;3.33;;;;;;;;;;5128472;27;20102;-75
2022/04/06 01:38:54;;;;;;;16.92;3.65;;;;;;;;;;5110590;27;20113;-76
2022/04/06 01:41:20;;;;;;;15.95;3.55;;;;;;;;;;5128914;27;20110;-75
2022/04/06 01:43:45;;;;;;;15.15;4.13;;;;;;;;;;5130158;27;20156;-77
2022/04/06 01:46:10;;;;;;;14.65;3.20;;;;;;;;;;5127184;27;20121;-77
2022/04/06 01:52:11;;;;;;;14.75;3.63;;;;;;;;;;5104165;27;20027;-73
2022/04/06 01:54:04;;;;;;;14.38;3.90;;;;;;;;;;5128769;27;20365;-75
2022/04/06 01:56:30;;;;;;;12.25;3.63;;;;;;;;;;5128983;27;20454;-75
2022/04/06 01:58:56;;;;;;;11.48;3.42;;;;;;;;;;5092254;27;20015;-75
2022/04/06 02:01:21;;;;;;;11.65;3.60;;;;;;;;;;5129285;27;20410;-75
2022/04/06 02:03:47;;;;;;;17.70;4.38;;;;;;;;;;5123079;27;20553;-77
2022/04/06 02:06:12;;;;;;;12.40;3.42;;;;;;;;;;5144271;27;20033;-77
2022/04/06 02:08:37;;;;;;;18.65;3.60;;;;;;;;;;5125717;27;20019;-75
2022/04/06 02:11:03;;;;;;;17.42;3.75;;;;;;;;;;5136997;27;20602;-74
2022/04/06 02:13:28;;;;;;;17.88;3.70;;;;;;;;;;5129242;27;20038;-74
2022/04/06 02:15:53;;;;;;;13.82;4.70;;;;;;;;;;5146995;27;20218;-75
2022/04/06 02:18:19;;;;;;;19.73;4.22;;;;;;;;;;5145861;27;20170;-75
2022/04/06 02:20:44;;;;;;;14.13;3.72;;;;;;;;;;5129446;27;20023;-74
2022/04/06 02:23:10;;;;;;;16.23;4.25;;;;;;;;;;5128595;27;20441;-76
2022/04/06 02:25:39;;;;;;;13.07;3.65;;;;;;;;;;5132073;27;20465;-76
2022/04/06 02:28:05;;;;;;;11.10;3.53;;;;;;;;;;5094198;27;20027;-74
2022/04/06 02:30:30;;;;;;;11.07;3.00;;;;;;;;;;5128224;27;20038;-76
2022/04/06 02:32:55;;;;;;;11.23;3.60;;;;;;;;;;5130552;27;20654;-76
2022/04/06 02:35:21;;;;;;;9.60;3.50;;;;;;;;;;5126013;27;20450;-73
2022/04/06 02:37:46;;;;;;;13.77;3.42;;;;;;;;;;5125633;27;20035;-76
2022/04/06 02:40:12;;;;;;;11.00;3.65;;;;;;;;;;5127523;27;20023;-74
2022/04/06 02:42:38;;;;;;;12.82;3.22;;;;;;;;;;5128455;27;20509;-76
2022/04/06 02:45:03;;;;;;;12.80;3.25;;;;;;;;;;5149907;27;20066;-74
2022/04/06 02:47:29;;;;;;;15.60;3.13;;;;;;;;;;5147639;27;20030;-75
2022/04/06 02:49:54;;;;;;;11.02;3.40;;;;;;;;;;5127690;27;20500;-75
2022/04/06 02:52:22;;;;;;;12.30;3.40;;;;;;;;;;5144690;27;20133;-75
2022/04/06 02:54:47;;;;;;;13.90;3.17;;;;;;;;;;5150487;27;20058;-77
2022/04/06 02:57:12;;;;;;;12.77;3.13;;;;;;;;;;5148987;27;20050;-74
2022/04/06 02:59:39;;;;;;;11.50;3.05;;;;;;;;;;5128533;27;20514;-75
2022/04/06 03:02:04;;;;;;;11.65;2.70;;;;;;;;;;5128871;27;20019;-76
2022/04/06 03:04:30;;;;;;;6.97;2.58;;;;;;;;;;5131745;27;20090;-74
2022/04/06 03:06:55;;;;;;;10.15;2.63;;;;;;;;;;5148411;27;20271;-75
2022/04/06 03:09:20;;;;;;;11.05;2.63;;;;;;;;;;5114812;27;20068;-73
2022/04/06 03:11:46;;;;;;;8.45;2.45;;;;;;;;;;5146093;27;20057;-73
2022/04/06 03:14:12;;;;;;;7.43;2.65;;;;;;;;;;5110222;27;20079;-74
2022/04/06 03:16:38;;;;;;;10.65;2.10;;;;;;;;;;5131084;27;20058;-76
2022/04/06 03:19:03;;;;;;;10.05;2.60;;;;;;;;;;5090137;27;20490;-75
2022/04/06 03:21:29;;;;;;;8.77;2.28;;;;;;;;;;5132257;27;20119;-75
2022/04/06 03:23:54;;;;;;;8.70;2.50;;;;;;;;;;5139422;27;20030;-76
2022/04/06 03:26:19;;;;;;;11.00;2.30;;;;;;;;;;5133610;27;20040;-75
2022/04/06 03:28:44;;;;;;;12.40;2.40;;;;;;;;;;5108963;27;20374;-75
2022/04/06 03:31:10;;;;;;;15.52;3.20;;;;;;;;;;5130965;27;20044;-76
2022/04/06 03:33:35;;;;;;;14.35;2.75;;;;;;;;;;5112010;27;20019;-75
2022/04/06 03:36:00;;;;;;;12.25;2.40;;;;;;;;;;5131834;27;20027;-75
2022/04/06 03:38:26;;;;;;;19.23;2.88;;;;;;;;;;5110615;27;20019;-76
2022/04/06 03:40:52;;;;;;;8.95;2.33;;;;;;;;;;5128365;27;20023;-76
2022/04/06 03:43:17;;;;;;;12.30;2.55;;;;;;;;;;5135230;27;20077;-76
2022/04/06 03:45:43;;;;;;;11.27;2.13;;;;;;;;;;5134103;27;20473;-74
2022/04/06 03:48:09;;;;;;;8.52;1.88;;;;;;;;;;5108613;27;20027;-75
2022/04/06 03:50:34;;;;;;;9.63;2.17;;;;;;;;;;5126834;27;20102;-75
2022/04/06 03:52:59;;;;;;;12.23;2.60;;;;;;;;;;5122315;27;20106;-76
2022/04/06 03:55:25;;;;;;;9.05;2.28;;;;;;;;;;5127457;27;20023;-76
2022/04/06 03:57:50;;;;;;;10.18;2.58;;;;;;;;;;5124480;27;20525;-76
2022/04/06 04:00:16;;;;;;;11.40;2.40;;;;;;;;;;5107823;27;20026;-75
2022/04/06 04:02:42;;;;;;;14.10;2.83;;;;;;;;;;5123114;27;20079;-74
2022/04/06 04:05:07;;;;;;;9.95;2.67;;;;;;;;;;5105201;27;20026;-75
2022/04/06 04:07:37;;;;;;;12.60;2.38;;;;;;;;;;5127115;27;20031;-76
2022/04/06 04:10:03;;;;;;;9.65;2.20;;;;;;;;;;5144915;27;20144;-76
2022/04/06 04:12:29;;;;;;;14.38;2.78;;;;;;;;;;5145750;27;20069;-75
2022/04/06 04:14:54;;;;;;;10.93;2.63;;;;;;;;;;5128547;27;20015;-75
2022/04/06 04:17:19;;;;;;;17.63;3.45;;;;;;;;;;5125644;27;20037;-76
2022/04/06 04:19:45;;;;;;;17.30;3.45;;;;;;;;;;5142296;27;20030;-75
2022/04/06 04:22:12;;;;;;;13.88;3.42;;;;;;;;;;5124804;27;20018;-77
2022/04/06 04:24:37;;;;;;;15.35;3.40;;;;;;;;;;5145029;27;20110;-76
2022/04/06 04:27:02;;;;;;;17.33;3.67;;;;;;;;;;5114283;27;20535;-75
2022/04/06 04:29:28;;;;;;;14.65;3.05;;;;;;;;;;5126922;27;20358;-75
2022/04/06 04:31:53;;;;;;;14.88;3.65;;;;;;;;;;5110035;27;20444;-77
2022/04/06 04:34:19;;;;;;;18.10;3.70;;;;;;;;;;5144277;27;20469;-77
2022/04/06 04:36:44;;;;;;;14.48;3.15;;;;;;;;;;5145289;27;20499;-75
2022/04/06 04:39:10;;;;;;;18.67;3.20;;;;;;;;;;5124858;27;20098;-76
2022/04/06 04:41:35;;;;;;;12.70;2.65;;;;;;;;;;5139553;27;20465;-75
2022/04/06 04:44:00;;;;;;;15.38;3.08;;;;;;;;;;5144693;27;20027;-75
2022/04/06 04:46:26;;;;;;;17.58;3.50;;;;;;;;;;5145320;27;20050;-75
2022/04/06 04:48:51;;;;;;;14.75;3.03;;;;;;;;;;5114532;27;20362;-78
2022/04/06 04:51:16;;;;;;;15.55;2.97;;;;;;;;;;5108529;28;20023;-74
2022/04/06 04:53:42;;;;;;;12.55;3.13;;;;;;;;;;5122843;28;20094;-75
2022/04/06 04:56:07;;;;;;;12.20;2.80;;;;;;;;;;5122254;27;20272;-76
2022/04/06 04:58:32;;;;;;;18.15;3.05;;;;;;;;;;5128560;27;20034;-75
2022/04/06 05:00:58;;;;;;;14.75;2.97;;;;;;;;;;5092240;27;20038;-75
2022/04/06 05:03:23;;;;;;;14.38;3.17;;;;;;;;;;5106899;27;20502;-75
2022/04/06 05:05:51;;;;;;;15.25;2.75;;;;;;;;;;5129268;27;20026;-76
2022/04/06 05:08:17;;;;;;;13.40;2.78;;;;;;;;;;5107789;27;20485;-75
2022/04/06 05:10:42;;;;;;;16.08;2.97;;;;;;;;;;5128397;27;20029;-74
2022/04/06 05:13:08;;;;;;;14.20;3.72;;;;;;;;;;5107996;27;20019;-75
2022/04/06 05:15:33;;;;;;;17.00;3.45;;;;;;;;;;5093033;27;20422;-75
2022/04/06 05:17:58;;;;;;;12.82;3.20;;;;;;;;;;5125844;27;20026;-73
2022/04/06 05:20:24;;;;;;;12.68;3.22;;;;;;;;;;5108503;27;20098;-73
2022/04/06 05:22:53;;;;;;;12.40;3.83;;;;;;;;;;5127337;27;20011;-75
2022/04/06 05:25:18;;;;;;;17.73;3.22;;;;;;;;;;5109981;27;20027;-75
2022/04/06 05:27:48;;;;;;;13.63;3.45;;;;;;;;;;5129261;27;20030;-75
2022/04/06 05:30:15;;;;;;;16.63;3.30;;;;;;;;;;5109065;27;20023;-75
2022/04/06 05:32:41;;;;;;;17.13;3.33;;;;;;;;;;5127272;27;20444;-75
2022/04/06 05:35:08;;;;;;;15.82;3.33;;;;;;;;;;5124825;27;20470;-76
2022/04/06 05:37:33;;;;;;;18.60;3.38;;;;;;;;;;5111424;27;20027;-76
2022/04/06 05:40:00;;;;;;;18.15;3.15;;;;;;;;;;5127020;27;20461;-77
2022/04/06 05:42:25;;;;;;;17.90;3.45;;;;;;;;;;5109464;27;20023;-77
2022/04/06 05:44:51;;;;;;;19.00;3.38;;;;;;;;;;5128422;27;20022;-75
2022/04/06 05:47:17;;;;;;;14.45;3.20;;;;;;;;;;5108123;27;20179;-77
2022/04/06 05:49:42;;;;;;;13.88;3.00;;;;;;;;;;5126621;27;20043;-76
2022/04/06 05:52:09;;;;;;;17.73;2.95;;;;;;;;;;5124790;27;20148;-75
2022/04/06 05:54:35;;;;;;;13.30;2.58;;;;;;;;;;5128438;27;20076;-76
2022/04/06 05:57:00;;;;;;;15.70;3.72;;;;;;;;;;5124928;27;20042;-76
2022/04/06 05:59:25;;;;;;;14.80;2.90;;;;;;;;;;5146259;27;20029;-76
2022/04/06 06:01:51;;;;;;;11.02;2.90;;;;;;;;;;5099670;27;20087;-77
2022/04/06 06:04:17;;;;;;;15.65;2.92;;;;;;;;;;5086530;27;20286;-75
2022/04/06 06:06:42;;;;;;;11.68;2.97;;;;;;;;;;5106538;27;20023;-75
2022/04/06 06:09:07;;;;;;;16.88;2.70;;;;;;;;;;5102564;27;20050;-76
2022/04/06 06:11:33;;;;;;;14.32;2.90;;;;;;;;;;5094691;27;20023;-76
2022/04/06 06:13:58;;;;;;;12.52;2.58;;;;;;;;;;5103510;27;20026;-74
2022/04/06 06:16:24;;;;;;;15.35;2.70;;;;;;;;;;5106472;27;20065;-74
2022/04/06 06:18:50;;;;;;;14.70;2.85;;;;;;;;;;5103235;27;20449;-76
2022/04/06 06:21:15;;;;;;;15.57;2.72;;;;;;;;;;5124588;27;20022;-75
2022/04/06 06:23:40;;;;;;;13.65;2.83;;;;;;;;;;5119839;27;20164;-76
2022/04/06 06:26:06;;;;;;;12.68;2.65;;;;;;;;;;5105368;27;20132;-74
2022/04/06 06:28:31;;;;;;;12.82;2.40;;;;;;;;;;5108941;27;20033;-76
2022/04/06 06:30:57;;;;;;;12.43;3.17;;;;;;;;;;5125714;27;20041;-74
2022/04/06 06:33:22;;;;;;;12.02;2.63;;;;;;;;;;5122800;27;20113;-77
2022/04/06 06:35:47;;;;;;;10.57;2.10;;;;;;;;;;5127095;27;20167;-79
2022/04/06 06:38:13;;;;;;;12.68;2.55;;;;;;;;;;5105233;27;20010;-76
2022/04/06 06:40:38;;;;;;;9.40;2.58;;;;;;;;;;5127852;27;20026;-81
2022/04/06 06:43:04;;;;;;;12.00;2.70;;;;;;;;;;5125297;27;20025;-79
2022/04/06 06:45:29;;;;;;;12.02;3.05;;;;;;;;;;5102943;27;20042;-76
2022/04/06 06:47:54;;;;;;;10.00;2.70;;;;;;;;;;5112441;27;20179;-76
2022/04/06 06:50:19;;;;;;;12.80;2.50;;;;;;;;;;5126800;27;20022;-78
2022/04/06 06:52:45;;;;;;;16.23;3.22;;;;;;;;;;5128369;27;20015;-76
2022/04/06 06:55:11;;;;;;;10.15;2.67;;;;;;;;;;5107533;27;20505;-76
2022/04/06 06:57:36;;;;;;;13.15;2.83;;;;;;;;;;5138284;27;20019;-76
2022/04/06 07:00:03;;;;;;;14.05;2.55;;;;;;;;;;5125311;27;20338;-78
2022/04/06 07:02:28;;;;;;;15.10;3.35;;;;;;;;;;5124083;27;20460;-78
2022/04/06 07:04:54;;;;;;;15.52;3.30;;;;;;;;;;5113251;27;20027;-75
2022/04/06 07:07:19;;;;;;;14.55;3.00;;;;;;;;;;5099551;27;20032;-78
2022/04/06 07:09:44;;;;;;;17.42;3.13;;;;;;;;;;5113288;27;20031;-74
2022/04/06 07:12:10;;;;;;;13.57;3.08;;;;;;;;;;5104627;27;20036;-73
2022/04/06 07:14:36;;;;;;;17.92;3.78;;;;;;;;;;5138512;27;20541;-73
2022/04/06 07:17:01;;;;;;;15.38;3.15;;;;;;;;;;5138654;27;20026;-72
2022/04/06 07:19:27;;;;;;;21.20;3.35;;;;;;;;;;5084850;27;20491;-73
2022/04/06 07:21:56;;;;;;;20.73;3.90;;;;;;;;;;5123817;27;20091;-72
2022/04/06 07:24:22;;;;;;;22.45;3.67;;;;;;;;;;5106726;27;20031;-75
2022/04/06 07:26:51;;;;;;;19.08;3.63;;;;;;;;;;5135093;27;20022;-73
2022/04/06 07:29:16;;;;;;;19.10;4.30;;;;;;;;;;5102438;27;20019;-72
2022/04/06 07:31:42;;;;;;;19.27;4.45;;;;;;;;;;5105593;27;20023;-76
2022/04/06 07:34:07;;;;;;;19.25;4.25;;;;;;;;;;5099487;27;20127;-75
2022/04/06 07:36:33;;;;;;;22.00;4.20;;;;;;;;;;5088326;27;20122;-74
2022/04/06 07:39:02;;;;;;;22.30;4.60;;;;;;;;;;5102956;27;20165;-74
2022/04/06 07:41:28;;;;;;;20.70;4.43;;;;;;;;;;5105018;27;20305;-74
2022/04/06 07:43:53;;;;;;;25.02;3.90;;;;;;;;;;5104476;27;20015;-75
2022/04/06 07:46:18;;;;;;;23.65;4.05;;;;;;;;;;5101172;27;20536;-73
2022/04/06 07:48:44;;;;;;;23.73;4.63;;;;;;;;;;5121096;27;20061;-74
2022/04/06 07:51:09;;;;;;;18.50;3.80;;;;;;;;;;5142571;27;20031;-73
2022/04/06 07:53:34;;;;;;;26.48;4.13;;;;;;;;;;5105552;27;20031;-74
2022/04/06 07:56:11;;;;;;;24.35;4.70;;;;;;;;;;5126116;27;20078;-73
2022/04/06 07:58:36;;;;;;;21.27;4.10;;;;;;;;;;5125836;27;20015;-75
2022/04/06 08:01:05;;;;;;;21.48;4.32;;;;;;;;;;5129946;27;20027;-73
2022/04/06 08:03:30;;;;;;;19.52;4.22;;;;;;;;;;5091135;27;20470;-72
2022/04/06 08:05:56;;;;;;;24.30;4.28;;;;;;;;;;5106038;27;20047;-73
2022/04/06 08:08:21;;;;;;;28.25;4.10;;;;;;;;;;5101095;27;20019;-73
2022/04/06 08:10:46;;;;;;;19.17;3.88;;;;;;;;;;5124592;27;20071;-72
2022/04/06 08:13:11;;;;;;;21.42;4.38;;;;;;;;;;5103713;27;20122;-74
2022/04/06 08:15:37;;;;;;;25.40;4.47;;;;;;;;;;5145767;27;20018;-74
2022/04/06 08:18:02;;;;;;;21.23;4.05;;;;;;;;;;5123723;27;20465;-71
2022/04/06 08:20:28;;;;;;;24.02;4.50;;;;;;;;;;5122147;27;20389;-74
2022/04/06 08:22:53;;;;;;;20.58;3.90;;;;;;;;;;5111517;27;20031;-74
2022/04/06 08:25:18;;;;;;;27.80;4.82;;;;;;;;;;5124749;27;20362;-73
2022/04/06 08:27:44;;;;;;;31.05;4.20;;;;;;;;;;5094063;27;20027;-73
2022/04/06 08:30:10;;;;;;;24.25;4.75;;;;;;;;;;5103283;27;20500;-72
2022/04/06 08:32:36;;;;;;;26.90;4.97;;;;;;;;;;5104360;27;20015;-72
2022/04/06 08:35:01;;;;;;;28.25;4.65;;;;;;;;;;5106648;27;20027;-75
2022/04/06 08:37:29;;;;;;;25.77;5.00;;;;;;;;;;5100873;27;20027;-73
2022/04/06 08:39:54;;;;;;;25.30;5.60;;;;;;;;;;5108193;27;20393;-73
2022/04/06 08:42:19;;;;;;;18.85;3.80;;;;;;;;;;5088749;27;20015;-76
2022/04/06 08:44:45;;;;;;;27.88;5.28;;;;;;;;;;5107977;27;20031;-74
2022/04/06 08:47:10;;;;;;;24.92;4.70;;;;;;;;;;5087950;27;20489;-72
2022/04/06 08:49:36;;;;;;;26.52;4.78;;;;;;;;;;5091076;27;20055;-76
2022/04/06 08:52:05;;;;;;;22.45;4.85;;;;;;;;;;5104800;27;20443;-73
2022/04/06 08:54:30;;;;;;;20.50;4.35;;;;;;;;;;5126624;27;20267;-73
2022/04/06 08:56:55;;;;;;;25.38;4.90;;;;;;;;;;5126382;27;20388;-74
2022/04/06 08:59:21;;;;;;;22.58;4.85;;;;;;;;;;5107140;27;20500;-73
2022/04/06 09:01:48;;;;;;;21.92;4.63;;;;;;;;;;5108314;27;20283;-73
2022/04/06 09:04:13;;;;;;;23.52;4.40;;;;;;;;;;5088362;27;20020;-72
2022/04/06 09:06:42;;;;;;;21.23;4.90;;;;;;;;;;5120552;27;20074;-72
2022/04/06 09:09:09;;;;;;;18.80;4.60;;;;;;;;;;5146698;27;20053;-74
2022/04/06 09:11:42;;;;;;;20.48;4.18;;;;;;;;;;5126765;27;20019;-74
2022/04/06 09:14:07;;;;;;;22.23;4.72;;;;;;;;;;5111616;27;20425;-74
2022/04/06 09:16:33;;;;;;;22.92;4.32;;;;;;;;;;5127775;27;21342;-73
2022/04/06 09:19:06;;;;;;;29.35;5.53;;;;;;;;;;5126474;27;20034;-74
2022/04/06 09:21:32;;;;;;;23.08;4.57;;;;;;;;;;5145883;27;20337;-73
2022/04/06 09:23:58;;;;;;;20.90;4.35;;;;;;;;;;5127172;27;20137;-73
2022/04/06 09:26:24;;;;;;;21.40;4.88;;;;;;;;;;5128464;27;20034;-74
2022/04/06 09:28:50;;;;;;;20.95;4.32;;;;;;;;;;5128661;27;20042;-74
2022/04/06 09:31:16;;;;;;;22.77;4.38;;;;;;;;;;5125592;27;20031;-75
2022/04/06 09:33:43;;;;;;;23.83;4.28;;;;;;;;;;5108649;27;20369;-73
2022/04/06 09:36:19;;;;;;;22.58;4.82;;;;;;;;;;5146837;27;20087;-73
2022/04/06 09:38:47;;;;;;;25.85;4.70;;;;;;;;;;5143610;27;20236;-75
2022/04/06 09:41:15;;;;;;;22.60;4.20;;;;;;;;;;5146194;27;20058;-74
2022/04/06 09:43:41;;;;;;;27.48;4.80;;;;;;;;;;5110379;27;20027;-74
2022/04/06 09:49:08;;;;;;;28.10;5.47;;;;;;;;;;5123405;27;20146;-73
2022/04/06 09:51:34;;;;;;;21.95;4.28;;;;;;;;;;5104074;27;20182;-72
2022/04/06 09:54:02;;;;;;;19.05;3.70;;;;;;;;;;5105698;27;20553;-73
2022/04/06 09:56:28;;;;;;;20.48;4.28;;;;;;;;;;5107533;27;20015;-73
2022/04/06 09:58:56;;;;;;;22.70;4.93;;;;;;;;;;5106270;27;20114;-74
2022/04/06 10:01:21;;;;;;;23.25;4.25;;;;;;;;;;5106338;27;20110;-72
2022/04/06 10:03:52;;;;;;;23.20;4.05;;;;;;;;;;5121358;27;20086;-74
2022/04/06 10:06:18;;;;;;;21.52;4.93;;;;;;;;;;5123453;27;20019;-74
2022/04/06 10:08:43;;;;;;;22.50;4.45;;;;;;;;;;5103647;27;21482;-72
2022/04/06 10:11:10;;;;;;;25.20;4.47;;;;;;;;;;5107838;27;20038;-73
2022/04/06 10:13:35;;;;;;;21.80;4.40;;;;;;;;;;5102270;27;20066;-73
2022/04/06 10:16:01;;;;;;;20.48;3.78;;;;;;;;;;5106757;27;20365;-73
2022/04/06 10:18:27;;;;;;;18.02;4.20;;;;;;;;;;5112292;27;20022;-73
2022/04/06 10:21:02;;;;;;;18.15;4.43;;;;;;;;;;5146560;27;20087;-74
2022/04/06 10:23:39;;;;;;;24.48;4.47;;;;;;;;;;5114109;27;20027;-75
2022/04/06 10:26:19;;;;;;;23.55;3.97;;;;;;;;;;5144282;27;20027;-73
2022/04/06 10:28:47;;;;;;;17.23;4.10;;;;;;;;;;5104382;27;20185;-72
2022/04/06 10:31:22;;;;;;;21.48;4.00;;;;;;;;;;5146068;27;20105;-75
2022/04/06 10:33:48;;;;;;;21.50;3.75;;;;;;;;;;5135963;27;20080;-76
2022/04/06 10:36:20;;;;;;;18.50;4.00;;;;;;;;;;5123752;27;20027;-73
2022/04/06 10:39:04;;;;;;;22.40;4.43;;;;;;;;;;5101903;27;20405;-75
2022/04/06 10:41:29;;;;;;;18.85;3.50;;;;;;;;;;5123457;27;20023;-73
2022/04/06 10:43:55;;;;;;;13.95;3.47;;;;;;;;;;5122467;27;20159;-73
2022/04/06 10:46:34;;;;;;;19.52;3.40;;;;;;;;;;5105120;27;20054;-74
2022/04/06 10:49:20;;;;;;;15.27;3.92;;;;;;;;;;5101608;27;20370;-75
2022/04/06 10:51:48;;;;;;;14.00;3.10;;;;;;;;;;5120938;27;20149;-73
2022/04/06 10:54:13;;;;;;;18.60;3.80;;;;;;;;;;5124016;27;20713;-73
2022/04/06 10:56:59;;;;;;;19.88;3.80;;;;;;;;;;5124828;27;20022;-74
2022/04/06 10:59:25;;;;;;;15.65;3.30;;;;;;;;;;5117826;27;20023;-72
2022/04/06 11:02:09;;;;;;;19.02;3.78;;;;;;;;;;5104752;27;20038;-74
2022/04/06 11:04:38;;;;;;;19.27;3.58;;;;;;;;;;5119039;27;20069;-74
2022/04/06 11:07:03;;;;;;;17.40;3.63;;;;;;;;;;5102792;27;20512;-74
2022/04/06 11:12:14;;;;;;;16.35;3.80;;;;;;;;;;5107879;27;20041;-73
2022/04/06 11:14:40;;;;;;;18.10;3.47;;;;;;;;;;5102835;27;20015;-74
2022/04/06 11:17:26;;;;;;;15.98;3.88;;;;;;;;;;5104272;27;20144;-72
2022/04/06 11:19:52;;;;;;;11.98;3.55;;;;;;;;;;5104049;27;20159;-72
2022/04/06 11:22:21;;;;;;;15.77;3.92;;;;;;;;;;5087622;27;20067;-76
2022/04/06 11:24:47;;;;;;;14.23;3.70;;;;;;;;;;5105420;27;20038;-75
2022/04/06 11:27:25;;;;;;;13.60;3.35;;;;;;;;;;5123632;27;20023;-74
2022/04/06 11:29:57;;;;;;;15.00;3.47;;;;;;;;;;5122228;27;20042;-75
2022/04/06 11:32:23;;;;;;;19.20;4.25;;;;;;;;;;5122931;27;20550;-72
2022/04/06 11:34:48;;;;;;;18.50;3.97;;;;;;;;;;5107402;27;20058;-74
2022/04/06 11:37:13;;;;;;;17.20;4.03;;;;;;;;;;5106721;27;20413;-76
2022/04/06 11:39:38;;;;;;;11.65;2.70;;;;;;;;;;5106322;27;20026;-72
2022/04/06 11:42:05;;;;;;;20.10;3.80;;;;;;;;;;5126763;27;20405;-72
2022/04/06 11:44:30;;;;;;;16.15;4.38;;;;;;;;;;5124145;27;20102;-74
2022/04/06 11:46:56;;;;;;;13.90;3.80;;;;;;;;;;5142794;27;20171;-73
2022/04/06 11:49:29;;;;;;;13.35;3.50;;;;;;;;;;5123938;27;20414;-74
2022/04/06 11:51:55;;;;;;;14.30;4.03;;;;;;;;;;5123164;27;20501;-73
2022/04/06 11:54:21;;;;;;;16.02;3.88;;;;;;;;;;5107995;27;20033;-73
2022/04/06 11:56:50;;;;;;;14.15;4.18;;;;;;;;;;5107219;27;20497;-75
2022/04/06 11:59:18;;;;;;;16.88;4.55;;;;;;;;;;5144949;27;20027;-75
2022/04/06 12:01:45;;;;;;;14.30;5.10;;;;;;;;;;5123851;27;20725;-74
2022/04/06 12:04:14;;;;;;;12.90;4.65;;;;;;;;;;5100318;27;20476;-74
2022/04/06 12:06:39;;;;;;;9.77;4.28;;;;;;;;;;5120276;27;20031;-76
2022/04/06 12:09:06;;;;;;;13.48;4.50;;;;;;;;;;5120900;27;20109;-73
2022/04/06 12:11:31;;;;;;;12.93;5.03;;;;;;;;;;5129547;27;20019;-73
2022/04/06 12:13:56;;;;;;;16.50;5.50;;;;;;;;;;5125191;27;20075;-75
2022/04/06 12:16:23;;;;;;;10.45;4.53;;;;;;;;;;5107806;27;20163;-74
2022/04/06 12:18:50;;;;;;;12.07;5.10;;;;;;;;;;5101108;27;20559;-75
2022/04/06 12:21:19;;;;;;;14.50;5.25;;;;;;;;;;5104853;27;20015;-73
2022/04/06 12:23:45;;;;;;;10.25;4.50;;;;;;;;;;5099782;27;20253;-74
2022/04/06 12:26:11;;;;;;;16.17;4.70;;;;;;;;;;5105829;27;20035;-74
2022/04/06 12:28:36;;;;;;;12.00;4.70;;;;;;;;;;5084061;27;20031;-74
2022/04/06 12:31:02;;;;;;;13.50;5.53;;;;;;;;;;5103350;27;20035;-73
2022/04/06 12:33:35;;;;;;;8.00;4.25;;;;;;;;;;5116779;27;20529;-73
2022/04/06 12:36:09;;;;;;;9.18;4.75;;;;;;;;;;5123125;27;20080;-72
2022/04/06 12:38:35;;;;;;;12.88;4.70;;;;;;;;;;5097969;27;20027;-73
2022/04/06 12:41:05;;;;;;;8.85;4.25;;;;;;;;;;5103807;27;20019;-77
2022/04/06 12:43:31;;;;;;;11.90;4.25;;;;;;;;;;5098849;27;20019;-77
2022/04/06 12:45:56;;;;;;;9.52;4.68;;;;;;;;;;5103738;27;20388;-75
2022/04/06 12:48:21;;;;;;;13.68;4.97;;;;;;;;;;5098251;27;20082;-73
2022/04/06 12:50:46;;;;;;;10.27;5.20;;;;;;;;;;5086672;27;20414;-75
2022/04/06 12:53:14;;;;;;;10.88;4.82;;;;;;;;;;5118902;27;20019;-75
2022/04/06 12:55:40;;;;;;;10.65;4.43;;;;;;;;;;5121188;27;20051;-71
2022/04/06 12:58:32;;;;;;;13.50;5.38;;;;;;;;;;5122932;27;20615;-74
2022/04/06 13:00:58;;;;;;;13.90;5.32;;;;;;;;;;5101801;27;20065;-75
2022/04/06 13:03:25;;;;;;;14.77;5.15;;;;;;;;;;5118259;27;20047;-72
2022/04/06 13:05:51;;;;;;;10.75;4.90;;;;;;;;;;5103772;27;20054;-74
2022/04/06 13:08:17;;;;;;;15.02;6.20;;;;;;;;;;5119677;27;20020;-75
2022/04/06 13:10:43;;;;;;;11.85;5.40;;;;;;;;;;5121144;27;20023;-75
2022/04/06 13:13:09;;;;;;;14.68;5.13;;;;;;;;;;5084988;27;20393;-75
2022/04/06 13:15:36;;;;;;;11.85;5.15;;;;;;;;;;5103353;27;20057;-73
2022/04/06 13:18:01;;;;;;;13.43;5.25;;;;;;;;;;5101622;27;20122;-75
2022/04/06 13:20:27;;;;;;;12.32;5.60;;;;;;;;;;5126136;27;20552;-75
2022/04/06 13:22:52;;;;;;;15.20;5.57;;;;;;;;;;5122369;27;20122;-74
2022/04/06 13:25:18;;;;;;;11.32;5.65;;;;;;;;;;5127001;27;20015;-73
2022/04/06 13:27:43;;;;;;;13.25;5.53;;;;;;;;;;5107111;27;20022;-73
2022/04/06 13:30:16;;;;;;;10.93;5.32;;;;;;;;;;5127674;27;20484;-74
2022/04/06 13:32:42;;;;;;;9.23;5.63;;;;;;;;;;5137903;27;20030;-74
2022/04/06 13:35:08;;;;;;;11.52;5.53;;;;;;;;;;5140726;27;20122;-76
2022/04/06 13:37:34;;;;;;;10.85;5.43;;;;;;;;;;5105450;27;20027;-74
2022/04/06 13:40:00;;;;;;;9.80;6.20;;;;;;;;;;5089847;27;20058;-72
2022/04/06 13:42:25;;;;;;;9.50;5.00;;;;;;;;;;5107002;27;20038;-73
2022/04/06 13:44:50;;;;;;;10.23;5.05;;;;;;;;;;5125909;27;20015;-73
2022/04/06 13:47:16;;;;;;;11.15;4.75;;;;;;;;;;5105600;27;20070;-75
2022/04/06 13:49:41;;;;;;;10.25;3.90;;;;;;;;;;5119951;27;20204;-72
2022/04/06 13:52:07;;;;;;;11.38;4.47;;;;;;;;;;5121666;27;20085;-74
2022/04/06 13:54:32;;;;;;;6.22;3.30;;;;;;;;;;5104635;27;20023;-75
2022/04/06 13:56:58;;;;;;;8.18;3.45;;;;;;;;;;5123551;27;20038;-75
2022/04/06 13:59:23;;;;;;;10.90;3.30;;;;;;;;;;5124594;27;20074;-75
2022/04/06 14:01:49;;;;;;;12.35;3.63;;;;;;;;;;5125213;27;20027;-75
2022/04/06 14:04:15;;;;;;;8.15;3.47;;;;;;;;;;5119194;27;20067;-74
2022/04/06 14:06:41;;;;;;;10.00;2.80;;;;;;;;;;5119185;27;20030;-71
2022/04/06 14:09:07;;;;;;;13.55;3.17;;;;;;;;;;5144221;27;20015;-75
2022/04/06 14:11:33;;;;;;;10.48;2.67;;;;;;;;;;5132491;27;20058;-73
2022/04/06 14:13:58;;;;;;;11.27;3.40;;;;;;;;;;5123033;27;20077;-77
2022/04/06 14:16:23;;;;;;;7.38;2.45;;;;;;;;;;5125359;27;20023;-76
2022/04/06 14:18:50;;;;;;;8.32;3.20;;;;;;;;;;5119896;27;20019;-76
2022/04/06 14:21:17;;;;;;;7.40;2.55;;;;;;;;;;5110609;27;20101;-74
2022/04/06 14:23:42;;;;;;;6.63;2.03;;;;;;;;;;5141552;27;20130;-75
2022/04/06 14:26:08;;;;;;;8.43;2.38;;;;;;;;;;5145997;27;20525;-76
2022/04/06 14:28:34;;;;;;;7.13;1.98;;;;;;;;;;5145236;27;20022;-74
2022/04/06 14:30:59;;;;;;;4.80;1.77;;;;;;;;;;5143419;27;20049;-73
2022/04/06 14:33:24;;;;;;;4.60;1.80;;;;;;;;;;5122390;27;20019;-75
2022/04/06 14:35:49;;;;;;;5.38;1.60;;;;;;;;;;5128970;27;20453;-74